createdAt,value
2018-02-07T00:01:15.659Z,21.70
2018-02-07T00:03:43.941Z,23.40
2018-02-07T00:06:12.088Z,23.57
2018-02-07T00:08:40.283Z,23.67
2018-02-07T00:11:08.539Z,21.20
2018-02-07T00:13:36.818Z,20.97
2018-02-07T00:16:04.955Z,22.03
2018-02-07T00:18:33.102Z,23.00
2018-02-07T00:21:01.250Z,22.57
2018-02-07T00:23:29.432Z,22.13
2018-02-07T00:25:58.317Z,22.27
2018-02-07T00:28:27.234Z,22.50
2018-02-07T00:30:55.422Z,23.90
2018-02-07T00:33:23.668Z,23.30
2018-02-07T00:35:52.208Z,24.87
2018-02-07T00:38:20.344Z,21.37
2018-02-07T00:40:48.531Z,23.13
2018-02-07T00:43:17.124Z,23.37
2018-02-07T00:45:45.258Z,21.67
2018-02-07T00:48:13.392Z,21.10
2018-02-07T00:50:41.774Z,21.97
2018-02-07T00:53:09.930Z,21.47
2018-02-07T00:55:38.067Z,22.67
2018-02-07T00:58:06.283Z,19.83
2018-02-07T01:00:34.434Z,23.57
2018-02-07T01:03:02.689Z,23.63
2018-02-07T01:05:30.902Z,22.77
2018-02-07T01:07:59.074Z,24.57
2018-02-07T01:10:27.700Z,24.03
2018-02-07T01:12:55.902Z,22.60
2018-02-07T01:15:24.075Z,23.93
2018-02-07T01:17:52.205Z,24.67
2018-02-07T01:20:20.323Z,25.30
2018-02-07T01:22:48.483Z,23.97
2018-02-07T01:25:16.585Z,24.63
2018-02-07T01:27:45.008Z,23.30
2018-02-07T01:30:13.129Z,24.67
2018-02-07T01:32:41.273Z,23.20
2018-02-07T01:35:09.400Z,22.17
2018-02-07T01:37:37.504Z,21.40
2018-02-07T01:40:06.390Z,21.37
2018-02-07T01:42:34.516Z,21.20
2018-02-07T01:45:02.661Z,21.30
2018-02-07T01:47:30.780Z,21.77
2018-02-07T01:49:58.886Z,23.87
2018-02-07T01:52:27.786Z,20.27
2018-02-07T01:54:55.906Z,20.57
2018-02-07T01:57:24.574Z,21.77
2018-02-07T01:59:52.692Z,21.83
2018-02-07T02:02:20.796Z,20.83
2018-02-07T02:04:48.937Z,24.07
2018-02-07T02:07:17.054Z,22.13
2018-02-07T02:09:45.328Z,21.17
2018-02-07T02:12:13.582Z,21.97
2018-02-07T02:14:41.876Z,22.40
2018-02-07T02:17:10.077Z,22.77
2018-02-07T02:19:38.242Z,22.57
2018-02-07T02:22:06.407Z,21.87
2018-02-07T02:24:34.543Z,21.60
2018-02-07T02:27:03.375Z,21.67
2018-02-07T02:29:31.524Z,20.87
2018-02-07T02:31:59.693Z,23.90
2018-02-07T02:34:27.875Z,24.80
2018-02-07T02:36:56.039Z,25.57
2018-02-07T02:39:24.293Z,23.03
2018-02-07T02:41:52.526Z,26.40
2018-02-07T02:44:20.654Z,24.40
2018-02-07T02:46:48.767Z,22.47
2018-02-07T02:49:17.531Z,24.93
2018-02-07T02:51:46.834Z,24.13
2018-02-07T02:54:16.154Z,25.03
2018-02-07T02:56:44.288Z,24.30
2018-02-07T02:59:12.482Z,23.63
2018-02-07T03:01:40.608Z,24.67
2018-02-07T03:04:09.002Z,28.97
2018-02-07T03:06:37.246Z,30.70
2018-02-07T03:09:06.275Z,34.53
2018-02-07T03:11:34.410Z,37.67
2018-02-07T03:14:06.600Z,38.70
2018-02-07T03:16:34.858Z,35.50
2018-02-07T03:19:03.002Z,35.07
2018-02-07T03:21:31.130Z,31.77
2018-02-07T03:23:59.248Z,33.93
2018-02-07T03:26:27.524Z,32.60
2018-02-07T03:28:56.266Z,33.13
2018-02-07T03:31:24.411Z,31.17
2018-02-07T03:33:52.547Z,32.47
2018-02-07T03:36:21.430Z,29.93
2018-02-07T03:38:53.674Z,29.40
2018-02-07T03:41:22.567Z,27.13
2018-02-07T03:43:50.671Z,28.10
2018-02-07T03:46:18.793Z,29.00
2018-02-07T03:48:46.921Z,29.07
2018-02-07T03:51:15.225Z,29.17
2018-02-07T03:53:43.474Z,28.20
2018-02-07T03:56:11.653Z,26.73
2018-02-07T03:58:39.795Z,29.13
2018-02-07T04:01:07.934Z,28.07
2018-02-07T04:03:39.855Z,26.73
2018-02-07T04:06:07.979Z,27.47
2018-02-07T04:08:36.331Z,27.53
2018-02-07T04:11:04.515Z,27.57
2018-02-07T04:13:32.659Z,27.17
2018-02-07T04:28:56.208Z,25.87
2018-02-07T04:31:24.340Z,28.27
2018-02-07T04:33:52.478Z,29.70
2018-02-07T04:36:20.752Z,27.43
2018-02-07T04:38:48.888Z,28.27
2018-02-07T04:41:17.194Z,27.30
2018-02-07T04:43:45.310Z,28.53
2018-02-07T04:46:14.202Z,25.50
2018-02-07T04:48:42.346Z,25.33
2018-02-07T04:51:10.488Z,26.83
2018-02-07T04:53:38.644Z,25.23
2018-02-07T04:56:07.129Z,27.30
2018-02-07T04:58:35.252Z,28.83
2018-02-07T05:01:03.407Z,25.40
2018-02-07T05:03:31.545Z,27.63
2018-02-07T05:05:59.726Z,25.90
2018-02-07T05:08:27.843Z,27.20
2018-02-07T05:10:56.081Z,27.57
2018-02-07T05:13:24.247Z,27.93
2018-02-07T05:15:52.354Z,26.57
2018-02-07T05:18:20.483Z,24.93
2018-02-07T05:20:48.593Z,26.00
2018-02-07T05:23:16.709Z,27.60
2018-02-07T05:25:44.807Z,25.43
2018-02-07T05:28:13.143Z,27.37
2018-02-07T05:30:41.285Z,26.87
2018-02-07T05:33:09.456Z,26.33
2018-02-07T05:35:37.691Z,26.60
2018-02-07T05:38:05.936Z,26.13
2018-02-07T05:40:34.144Z,27.63
2018-02-07T05:43:02.314Z,26.17
2018-02-07T05:45:31.576Z,26.97
2018-02-07T05:47:59.680Z,26.53
2018-02-07T05:50:28.563Z,27.73
2018-02-07T05:52:56.680Z,26.83
2018-02-07T05:55:24.794Z,27.50
2018-02-07T05:57:52.952Z,25.90
2018-02-07T06:00:21.062Z,27.37
2018-02-07T06:02:49.942Z,25.40
2018-02-07T06:05:18.831Z,26.90
2018-02-07T06:07:47.782Z,26.63
2018-02-07T06:10:15.988Z,25.73
2018-02-07T06:12:44.105Z,27.17
2018-02-07T06:15:12.211Z,25.60
2018-02-07T06:17:40.338Z,27.27
2018-02-07T06:20:08.444Z,26.00
2018-02-07T06:22:36.805Z,25.73
2018-02-07T06:25:04.902Z,25.80
2018-02-07T06:27:33.021Z,26.20
2018-02-07T06:30:01.142Z,27.67
2018-02-07T06:32:29.262Z,26.23
2018-02-07T06:34:57.359Z,26.13
2018-02-07T06:37:25.466Z,25.87
2018-02-07T06:39:53.573Z,25.83
2018-02-07T06:42:21.717Z,28.27
2018-02-07T06:44:49.813Z,27.13
2018-02-07T06:47:17.939Z,27.97
2018-02-07T06:49:46.072Z,27.83
2018-02-07T06:52:14.466Z,27.20
2018-02-07T06:54:42.585Z,26.93
2018-02-07T06:57:10.771Z,28.40
2018-02-07T06:59:38.903Z,25.97
2018-02-07T07:02:07.049Z,27.13
2018-02-07T07:04:35.159Z,27.80
2018-02-07T07:07:03.265Z,25.53
2018-02-07T07:09:31.375Z,27.20
2018-02-07T07:11:59.455Z,25.80
2018-02-07T07:14:27.600Z,27.10
2018-02-07T07:16:55.792Z,26.50
2018-02-07T07:19:24.040Z,27.43
2018-02-07T07:21:52.261Z,25.77
2018-02-07T07:24:20.545Z,26.67
2018-02-07T07:26:48.782Z,26.40
2018-02-07T07:29:17.012Z,25.23
2018-02-07T07:31:45.296Z,26.57
2018-02-07T07:34:13.522Z,27.87
2018-02-07T07:36:41.788Z,29.77
2018-02-07T07:39:10.712Z,28.70
2018-02-07T07:41:38.816Z,28.17
2018-02-07T07:44:06.943Z,27.97
2018-02-07T07:46:35.573Z,28.77
2018-02-07T07:49:03.666Z,27.27
2018-02-07T07:51:32.249Z,26.97
2018-02-07T07:54:01.124Z,26.10
2018-02-07T07:56:29.253Z,28.23
2018-02-07T07:58:57.362Z,26.47
2018-02-07T08:01:25.464Z,27.07
2018-02-07T08:03:53.567Z,27.77
2018-02-07T08:06:21.903Z,28.10
2018-02-07T08:08:50.011Z,27.37
2018-02-07T08:11:18.225Z,28.37
2018-02-07T08:13:46.433Z,27.13
2018-02-07T08:16:14.577Z,28.27
2018-02-07T08:18:42.685Z,26.47
2018-02-07T08:21:10.783Z,26.53
2018-02-07T08:23:38.907Z,26.10
2018-02-07T08:26:07.026Z,27.47
2018-02-07T08:28:35.147Z,27.40
2018-02-07T08:31:03.306Z,27.57
2018-02-07T08:33:31.380Z,26.80
2018-02-07T08:35:59.579Z,26.70
2018-02-07T08:38:27.681Z,26.50
2018-02-07T08:40:55.876Z,25.83
2018-02-07T08:43:23.977Z,26.53
2018-02-07T08:45:52.082Z,27.43
2018-02-07T08:48:20.174Z,26.80
2018-02-07T08:50:49.192Z,27.03
2018-02-07T08:53:17.420Z,27.10
2018-02-07T08:55:45.702Z,26.17
2018-02-07T08:58:13.817Z,26.37
2018-02-07T09:00:41.936Z,25.67
2018-02-07T09:03:10.826Z,25.60
2018-02-07T09:05:38.942Z,25.43
2018-02-07T09:08:07.040Z,27.50
2018-02-07T09:10:35.216Z,27.43
2018-02-07T09:13:03.387Z,29.00
2018-02-07T09:15:31.535Z,26.77
2018-02-07T09:17:59.631Z,28.53
2018-02-07T09:20:27.753Z,27.57
2018-02-07T09:22:56.621Z,26.97
2018-02-07T09:25:24.794Z,27.10
2018-02-07T09:27:52.893Z,27.40
2018-02-07T09:30:21.053Z,28.87
2018-02-07T09:32:49.165Z,27.43
2018-02-07T09:35:17.271Z,28.90
2018-02-07T09:37:45.486Z,28.57
2018-02-07T09:40:13.578Z,28.00
2018-02-07T09:42:41.693Z,28.20
2018-02-07T09:45:09.791Z,28.77
2018-02-07T09:47:37.911Z,28.43
2018-02-07T09:50:06.042Z,27.30
2018-02-07T09:52:34.922Z,27.00
2018-02-07T09:55:03.777Z,26.77
2018-02-07T09:57:31.906Z,27.53
2018-02-07T10:00:00.032Z,26.53
2018-02-07T10:02:28.148Z,27.47
2018-02-07T10:04:56.338Z,26.13
2018-02-07T10:07:24.462Z,25.70
2018-02-07T10:09:52.564Z,27.93
2018-02-07T10:12:20.666Z,26.87
2018-02-07T10:14:48.766Z,26.87
2018-02-07T10:17:16.872Z,26.17
2018-02-07T10:19:45.752Z,29.53
2018-02-07T10:22:13.946Z,27.07
2018-02-07T10:24:42.120Z,26.83
2018-02-07T10:27:10.256Z,29.00
2018-02-07T10:29:38.374Z,26.67
2018-02-07T10:32:06.566Z,28.57
2018-02-07T10:34:34.668Z,28.27
2018-02-07T10:37:02.762Z,27.87
2018-02-07T10:39:30.877Z,26.53
2018-02-07T10:41:58.974Z,27.60
2018-02-07T10:44:27.113Z,29.43
2018-02-07T10:46:55.219Z,28.20
2018-02-07T10:49:23.330Z,28.97
2018-02-07T10:51:51.431Z,25.63
2018-02-07T10:54:19.619Z,29.07
2018-02-07T10:56:47.856Z,28.40
2018-02-07T10:59:16.083Z,29.40
2018-02-07T11:01:44.255Z,26.70
2018-02-07T11:04:12.684Z,28.27
2018-02-07T11:06:40.792Z,28.43
2018-02-07T11:09:08.935Z,29.80
2018-02-07T11:11:37.652Z,29.87
2018-02-07T11:14:05.760Z,29.37
2018-02-07T11:16:33.899Z,26.43
2018-02-07T11:19:02.002Z,28.63
2018-02-07T11:21:30.111Z,28.20
2018-02-07T11:23:58.265Z,27.53
2018-02-07T11:26:26.384Z,27.23
2018-02-07T11:28:54.490Z,28.07
2018-02-07T11:31:22.604Z,27.13
2018-02-07T11:33:50.694Z,27.63
2018-02-07T11:36:18.841Z,28.57
2018-02-07T11:38:47.717Z,28.60
2018-02-07T11:41:15.859Z,28.70
2018-02-07T11:43:43.958Z,28.63
2018-02-07T11:46:12.096Z,30.23
2018-02-07T11:48:40.198Z,30.27
2018-02-07T11:51:08.315Z,28.53
2018-02-07T11:53:36.468Z,29.20
2018-02-07T11:56:04.600Z,26.77
2018-02-07T11:58:32.714Z,29.07
2018-02-07T12:01:01.583Z,30.53
2018-02-07T12:03:29.711Z,28.30
2018-02-07T12:05:57.856Z,29.43
2018-02-07T12:08:26.025Z,29.37
2018-02-07T12:10:54.941Z,29.57
2018-02-07T12:13:23.021Z,30.07
2018-02-07T12:15:51.120Z,28.03
2018-02-07T12:18:19.251Z,30.90
2018-02-07T12:20:47.387Z,28.73
2018-02-07T12:23:16.515Z,28.57
2018-02-07T12:25:44.659Z,27.80
2018-02-07T12:28:12.779Z,29.77
2018-02-07T12:30:40.887Z,28.93
2018-02-07T12:33:09.611Z,28.70
2018-02-07T12:35:37.731Z,28.67
2018-02-07T12:38:05.919Z,29.27
2018-02-07T12:40:34.171Z,28.47
2018-02-07T12:43:03.134Z,29.00
2018-02-07T12:45:31.254Z,28.90
2018-02-07T12:48:00.093Z,28.23
2018-02-07T12:50:28.236Z,28.97
2018-02-07T12:52:56.442Z,27.47
2018-02-07T12:55:24.559Z,27.33
2018-02-07T12:57:52.668Z,27.27
2018-02-07T13:00:20.794Z,28.33
2018-02-07T13:02:49.387Z,28.73
2018-02-07T13:05:17.620Z,28.07
2018-02-07T13:07:45.882Z,29.87
2018-02-07T13:10:14.752Z,27.40
2018-02-07T13:12:42.866Z,27.50
2018-02-07T13:15:10.964Z,28.73
2018-02-07T13:17:39.078Z,27.20
2018-02-07T13:20:07.188Z,27.33
2018-02-07T13:22:35.364Z,30.10
2018-02-07T13:25:03.594Z,28.40
2018-02-07T13:27:31.882Z,28.47
2018-02-07T13:30:00.087Z,27.60
2018-02-07T13:32:28.307Z,29.63
2018-02-07T13:34:56.575Z,29.47
2018-02-07T13:37:24.674Z,27.63
2018-02-07T13:39:52.779Z,29.57
2018-02-07T13:42:20.868Z,28.87
2018-02-07T13:44:48.975Z,28.23
2018-02-07T13:47:17.080Z,28.83
2018-02-07T13:49:45.201Z,26.27
2018-02-07T13:52:13.344Z,28.37
2018-02-07T13:54:41.622Z,27.03
2018-02-07T13:57:09.823Z,29.40
2018-02-07T13:59:37.995Z,26.20
2018-02-07T14:02:06.098Z,28.30
2018-02-07T14:04:34.257Z,26.27
2018-02-07T14:07:02.410Z,26.37
2018-02-07T14:09:30.612Z,26.60
2018-02-07T14:11:58.708Z,26.60
2018-02-07T14:14:26.801Z,28.10
2018-02-07T14:16:54.910Z,28.47
2018-02-07T14:19:23.109Z,25.63
2018-02-07T14:21:51.233Z,27.20
2018-02-07T14:24:19.332Z,24.47
2018-02-07T14:26:47.484Z,25.33
2018-02-07T14:29:15.624Z,24.57
2018-02-07T14:31:43.729Z,26.77
2018-02-07T14:34:11.824Z,24.83
2018-02-07T14:36:39.948Z,24.90
2018-02-07T14:39:08.057Z,23.33
2018-02-07T14:41:36.948Z,23.67
2018-02-07T14:44:05.040Z,22.87
2018-02-07T14:46:33.188Z,23.87
2018-02-07T14:49:01.290Z,25.23
2018-02-07T15:04:24.524Z,20.57
2018-02-07T15:06:52.639Z,21.43
2018-02-07T15:09:20.771Z,22.87
2018-02-07T15:11:48.898Z,21.30
2018-02-07T15:14:17.069Z,24.30
2018-02-07T15:16:45.173Z,21.50
2018-02-07T15:19:13.289Z,22.30
2018-02-07T15:21:41.389Z,22.27
2018-02-07T15:24:09.509Z,22.57
2018-02-07T15:26:37.643Z,22.97
2018-02-07T15:29:06.533Z,21.87
2018-02-07T15:31:34.629Z,22.37
2018-02-07T15:34:02.818Z,22.83
2018-02-07T15:36:30.917Z,21.70
2018-02-07T15:39:00.395Z,21.10
2018-02-07T15:41:28.495Z,22.63
2018-02-07T15:43:56.641Z,22.60
2018-02-07T15:46:24.740Z,21.83
2018-02-07T15:48:52.876Z,22.47
2018-02-07T15:51:20.988Z,22.90
2018-02-07T15:53:49.139Z,23.10
2018-02-07T15:56:17.244Z,22.67
2018-02-07T15:58:45.352Z,22.70
2018-02-07T16:01:13.528Z,21.17
2018-02-07T16:03:41.618Z,24.97
2018-02-07T16:06:09.741Z,21.87
2018-02-07T16:08:37.860Z,24.43
2018-02-07T16:11:05.979Z,23.10
2018-02-07T16:13:34.073Z,23.73
2018-02-07T16:16:02.198Z,24.43
2018-02-07T16:18:30.312Z,24.33
2018-02-07T16:20:58.437Z,22.57
2018-02-07T16:23:26.528Z,23.47
2018-02-07T16:25:54.653Z,24.87
2018-02-07T16:28:22.775Z,24.57
2018-02-07T16:30:50.887Z,23.90
2018-02-07T16:33:19.003Z,26.37
2018-02-07T16:35:47.897Z,25.63
2018-02-07T16:38:16.005Z,25.37
2018-02-07T16:40:44.115Z,25.80
2018-02-07T16:43:12.219Z,25.80
2018-02-07T16:45:40.326Z,25.57
2018-02-07T16:48:08.464Z,25.73
2018-02-07T16:50:36.556Z,25.57
2018-02-07T16:53:04.711Z,27.07
2018-02-07T16:55:32.829Z,27.63
2018-02-07T16:58:00.974Z,27.80
2018-02-07T17:00:29.865Z,26.53
2018-02-07T17:02:57.991Z,27.07
2018-02-07T17:05:26.092Z,25.73
2018-02-07T17:07:54.272Z,26.73
2018-02-07T17:10:22.376Z,26.50
2018-02-07T17:12:50.482Z,26.50
2018-02-07T17:15:18.664Z,26.67
2018-02-07T17:17:46.760Z,26.20
2018-02-07T17:20:14.868Z,25.70
2018-02-07T17:22:42.982Z,26.73
2018-02-07T17:25:11.071Z,25.80
2018-02-07T17:27:39.236Z,26.17
2018-02-07T17:30:07.422Z,26.33
2018-02-07T17:32:35.611Z,25.77
2018-02-07T17:35:04.261Z,22.43
2018-02-07T17:37:32.367Z,23.57
2018-02-07T17:40:00.468Z,21.53
2018-02-07T17:42:28.587Z,22.73
2018-02-07T17:44:57.054Z,22.03
2018-02-07T17:47:25.182Z,23.53
2018-02-07T17:49:53.397Z,23.57
2018-02-07T17:52:21.540Z,23.57
2018-02-07T17:54:49.764Z,24.27
2018-02-07T17:57:17.855Z,24.83
2018-02-07T17:59:46.633Z,23.57
2018-02-07T18:02:15.519Z,23.67
2018-02-07T18:04:43.740Z,23.47
2018-02-07T18:07:11.854Z,25.60
2018-02-07T18:09:39.941Z,21.37
2018-02-07T18:12:08.067Z,23.20
2018-02-07T18:14:36.160Z,24.53
2018-02-07T18:17:04.279Z,25.53
2018-02-07T18:19:32.368Z,25.03
2018-02-07T18:22:00.511Z,25.37
2018-02-07T18:24:28.609Z,25.23
2018-02-07T18:26:56.718Z,27.70
2018-02-07T18:29:24.815Z,26.07
2018-02-07T18:31:52.931Z,26.70
2018-02-07T18:34:21.040Z,27.03
2018-02-07T18:36:49.168Z,27.17
2018-02-07T18:39:17.428Z,29.70
2018-02-07T18:41:45.570Z,28.23
2018-02-07T18:44:13.762Z,28.47
2018-02-07T18:46:41.946Z,29.60
2018-02-07T18:49:10.057Z,30.20
2018-02-07T18:51:38.161Z,29.80
2018-02-07T18:54:06.292Z,30.47
2018-02-07T18:56:34.430Z,28.87
2018-02-07T18:59:02.543Z,29.67
2018-02-07T19:01:30.632Z,31.57
2018-02-07T19:03:58.773Z,31.90
2018-02-07T19:06:27.256Z,29.00
2018-02-07T19:08:55.476Z,28.67
2018-02-07T19:11:23.652Z,29.80
2018-02-07T19:13:51.806Z,31.10
2018-02-07T19:16:19.903Z,30.63
2018-02-07T19:18:48.860Z,30.27
2018-02-07T19:21:17.033Z,29.63
2018-02-07T19:23:45.147Z,32.17
2018-02-07T19:26:14.031Z,30.47
2018-02-07T19:28:42.134Z,31.30
2018-02-07T19:31:10.247Z,30.67
2018-02-07T19:33:38.817Z,32.20
2018-02-07T19:36:06.921Z,29.63
2018-02-07T19:38:35.024Z,29.80
2018-02-07T19:41:03.155Z,33.23
2018-02-07T19:43:31.312Z,31.87
2018-02-07T19:45:59.403Z,30.23
2018-02-07T19:48:27.499Z,32.20
2018-02-07T19:50:56.603Z,30.50
2018-02-07T19:53:25.503Z,30.30
2018-02-07T19:55:53.610Z,29.50
2018-02-07T19:58:21.715Z,30.67
2018-02-07T20:00:49.830Z,31.83
2018-02-07T20:03:17.963Z,31.17
2018-02-07T20:05:46.066Z,32.13
2018-02-07T20:08:14.246Z,30.97
2018-02-07T20:10:42.446Z,31.50
2018-02-07T20:13:10.737Z,32.13
2018-02-07T20:15:38.978Z,31.93
2018-02-07T20:18:07.306Z,32.23
2018-02-07T20:20:35.457Z,33.70
2018-02-07T20:23:03.662Z,34.00
2018-02-07T20:25:31.872Z,32.67
2018-02-07T20:27:59.975Z,31.80
2018-02-07T20:30:28.088Z,31.83
2018-02-07T20:32:56.187Z,31.23
2018-02-07T20:35:24.310Z,34.90
2018-02-07T20:37:52.421Z,31.77
2018-02-07T20:40:20.550Z,32.03
2018-02-07T20:42:48.758Z,31.80
2018-02-07T20:45:17.635Z,31.97
2018-02-07T20:47:45.889Z,32.17
2018-02-07T20:50:13.989Z,33.03
2018-02-07T20:52:42.085Z,33.63
2018-02-07T20:55:10.608Z,32.73
2018-02-07T20:57:38.705Z,32.73
2018-02-07T21:00:06.851Z,31.53
2018-02-07T21:02:34.981Z,33.33
2018-02-07T21:05:03.123Z,33.13
2018-02-07T21:07:31.288Z,33.43
2018-02-07T21:10:00.291Z,33.60
2018-02-07T21:12:28.525Z,29.90
2018-02-07T21:14:56.659Z,33.43
2018-02-07T21:17:24.865Z,34.13
2018-02-07T21:19:53.670Z,32.37
2018-02-07T21:22:21.777Z,32.33
2018-02-07T21:24:49.945Z,34.43
2018-02-07T21:27:18.117Z,33.97
2018-02-07T21:29:46.367Z,33.60
2018-02-07T21:32:14.653Z,33.67
2018-02-07T21:34:42.864Z,33.47
2018-02-07T21:37:11.050Z,33.30
2018-02-07T21:39:39.546Z,33.30
2018-02-07T21:42:07.652Z,31.10
2018-02-07T21:44:35.786Z,31.97
2018-02-07T21:47:03.922Z,32.50
2018-02-07T21:49:32.032Z,31.43
2018-02-07T21:52:00.125Z,32.87
2018-02-07T21:54:28.241Z,31.70
2018-02-07T21:56:56.373Z,32.03
2018-02-07T21:59:24.492Z,31.17
2018-02-07T22:01:53.350Z,29.97
2018-02-07T22:04:21.528Z,31.73
2018-02-07T22:06:50.387Z,32.10
2018-02-07T22:09:18.501Z,29.73
2018-02-07T22:11:46.614Z,30.33
2018-02-07T22:14:14.875Z,29.70
2018-02-07T22:16:43.033Z,28.97
2018-02-07T22:19:11.181Z,31.60
2018-02-07T22:21:39.361Z,31.47
2018-02-07T22:24:07.513Z,31.33
2018-02-07T22:26:35.619Z,30.97
2018-02-07T22:29:03.742Z,32.83
2018-02-07T22:31:31.837Z,30.80
2018-02-07T22:34:00.032Z,31.67
2018-02-07T22:36:28.093Z,30.40
2018-02-07T22:38:56.296Z,29.13
2018-02-07T22:41:24.528Z,29.97
2018-02-07T22:43:52.742Z,30.00
2018-02-07T22:46:21.289Z,29.00
2018-02-07T22:48:49.387Z,29.23
2018-02-07T22:51:17.674Z,28.63
2018-02-07T22:53:49.836Z,30.37
2018-02-07T22:56:18.000Z,29.27
2018-02-07T22:58:46.116Z,29.27
2018-02-07T23:01:14.224Z,29.97
2018-02-07T23:03:42.326Z,30.97
2018-02-07T23:06:10.442Z,29.37
2018-02-07T23:08:38.588Z,28.90
2018-02-07T23:11:06.708Z,31.00
2018-02-07T23:13:34.820Z,29.17
2018-02-07T23:16:03.020Z,28.07
2018-02-07T23:18:31.228Z,27.90
2018-02-07T23:20:59.418Z,28.10
2018-02-07T23:23:27.750Z,27.57
2018-02-07T23:25:55.880Z,28.70
2018-02-07T23:28:24.000Z,29.40
2018-02-07T23:30:52.143Z,28.00
2018-02-07T23:33:20.956Z,29.80
2018-02-07T23:35:49.105Z,28.43
2018-02-07T23:38:17.845Z,27.27
2018-02-07T23:40:45.935Z,27.10
2018-02-07T23:43:14.057Z,27.80
2018-02-07T23:45:42.147Z,26.60
2018-02-07T23:48:10.263Z,25.67
2018-02-07T23:50:38.363Z,27.70
2018-02-07T23:53:11.724Z,25.80
2018-02-07T23:55:39.815Z,25.33
2018-02-07T23:58:08.039Z,28.00
